Time;durP1;ratioP1;P1;durP2;ratioP2;P2;SDS_P1;SDS_P2;PMS_P1;PMS_P2;Temp;Humidity;BMP_temperature;BMP_pressure;BME280_temperature;BME280_humidity;BME280_pressure;Samples;Min_cycle;Max_cycle;Signal;HPM_P1;HPM_P2
2021/11/04 00:01:49;;;;;;;19.38;13.23;;;;;;;9.69;86.42;93481.22;5112632;28;20027;-56
2021/11/04 00:04:15;;;;;;;19.52;13.55;;;;;;;9.63;86.43;93479.91;5097460;28;20039;-55
2021/11/04 00:06:40;;;;;;;18.30;12.38;;;;;;;9.63;86.88;93482.66;5107470;28;20113;-56
2021/11/04 00:09:06;;;;;;;19.98;10.95;;;;;;;9.67;86.51;93494.06;5099603;28;20024;-56
2021/11/04 00:11:32;;;;;;;18.75;12.45;;;;;;;9.62;86.80;93508.72;5111901;28;20055;-56
2021/11/04 00:13:57;;;;;;;17.98;12.15;;;;;;;9.55;87.58;93487.41;5107563;28;20020;-56
2021/11/04 00:16:22;;;;;;;19.45;11.68;;;;;;;9.57;87.33;93504.13;5105846;28;20129;-57
2021/11/04 00:18:48;;;;;;;17.70;11.20;;;;;;;9.62;87.20;93497.72;5091766;28;20070;-50
2021/11/04 00:21:13;;;;;;;18.23;10.90;;;;;;;9.54;87.96;93507.94;5091778;28;20031;-54
2021/11/04 00:23:39;;;;;;;85.88;19.52;;;;;;;9.48;88.22;93510.13;5093596;28;20031;-53
2021/11/04 00:26:04;;;;;;;19.40;13.25;;;;;;;9.29;88.17;93487.56;5112504;28;20024;-57
2021/11/04 00:28:30;;;;;;;19.38;13.55;;;;;;;9.44;88.69;93509.72;5112187;28;20435;-57
2021/11/04 00:30:55;;;;;;;17.33;12.13;;;;;;;9.47;88.47;93514.88;5111869;28;20103;-57
2021/11/04 00:33:21;;;;;;;23.27;13.68;;;;;;;9.44;88.43;93515.94;5112059;28;20020;-58
2021/11/04 00:35:46;;;;;;;20.08;12.98;;;;;;;9.48;88.42;93510.88;5111954;28;20031;-58
2021/11/04 00:38:11;;;;;;;19.33;12.52;;;;;;;9.46;88.59;93518.19;5107194;28;20089;-57
2021/11/04 00:40:37;;;;;;;20.83;13.55;;;;;;;9.45;88.87;93508.44;5100020;28;20062;-58
2021/11/04 00:43:03;;;;;;;21.75;12.00;;;;;;;9.39;88.87;93494.06;5102935;28;20023;-53
2021/11/04 00:45:28;;;;;;;20.10;11.73;;;;;;;9.46;88.53;93512.69;5111681;28;20608;-51
2021/11/04 00:47:54;;;;;;;17.95;12.10;;;;;;;9.43;88.61;93520.00;5111780;28;20022;-53
2021/11/04 00:50:21;;;;;;;18.17;11.93;;;;;;;9.42;88.37;93512.28;5111568;28;20082;-53
2021/11/04 00:52:47;;;;;;;18.38;12.30;;;;;;;9.40;88.71;93510.03;5105558;28;20024;-48
2021/11/04 00:55:12;;;;;;;17.50;11.80;;;;;;;9.38;88.67;93509.09;5096188;28;20520;-54
2021/11/04 00:57:38;;;;;;;19.83;12.00;;;;;;;9.44;88.68;93510.44;5111829;28;20026;-55
2021/11/04 01:00:05;;;;;;;16.40;11.10;;;;;;;9.43;88.49;93517.25;5111775;28;20126;-53
2021/11/04 01:02:30;;;;;;;16.90;11.55;;;;;;;9.38;88.19;93503.59;5107310;28;20030;-52
2021/11/04 01:04:56;;;;;;;17.55;11.25;;;;;;;9.45;88.04;93516.69;5090777;28;20048;-55
2021/11/04 01:07:21;;;;;;;19.33;11.93;;;;;;;9.42;88.08;93507.50;5091123;28;20035;-53
2021/11/04 01:09:47;;;;;;;17.08;11.77;;;;;;;9.44;88.20;93520.75;5091282;28;20817;-54
2021/11/04 01:12:13;;;;;;;16.20;11.30;;;;;;;9.36;87.61;93498.63;5091228;28;20043;-53
2021/11/04 01:14:38;;;;;;;19.00;11.93;;;;;;;9.51;87.47;93520.78;5090778;28;20414;-52
2021/11/04 01:17:03;;;;;;;19.27;12.32;;;;;;;9.49;87.52;93517.09;5090830;28;20054;-53
2021/11/04 01:19:29;;;;;;;16.73;11.82;;;;;;;9.35;87.39;93490.91;5091006;28;20103;-53
2021/11/04 01:21:55;;;;;;;15.38;11.27;;;;;;;9.45;87.62;93508.44;5091054;28;20035;-52
2021/11/04 01:24:20;;;;;;;17.75;11.38;;;;;;;9.44;87.10;93512.47;5090829;28;20374;-53
2021/11/04 01:26:46;;;;;;;16.13;10.85;;;;;;;9.46;86.86;93507.91;5090606;28;20089;-50
2021/11/04 01:29:11;;;;;;;14.60;10.55;;;;;;;9.46;86.21;93515.44;5090644;28;20020;-54
2021/11/04 01:31:36;;;;;;;17.88;11.90;;;;;;;9.37;86.94;93516.66;5102136;28;20049;-54
2021/11/04 01:34:02;;;;;;;19.25;12.20;;;;;;;9.38;87.69;93514.63;5090616;28;20077;-53
2021/11/04 01:36:27;;;;;;;17.85;12.15;;;;;;;9.39;87.69;93519.59;5090719;28;20081;-52
2021/11/04 01:38:53;;;;;;;19.00;12.00;;;;;;;9.45;87.53;93528.47;5090617;28;20386;-49
2021/11/04 01:41:18;;;;;;;18.45;10.85;;;;;;;9.54;87.18;93524.50;5097123;28;20523;-53
2021/11/04 01:43:44;;;;;;;15.40;11.38;;;;;;;9.54;86.88;93530.75;5110818;28;20031;-52
2021/11/04 01:46:11;;;;;;;18.85;11.15;;;;;;;9.55;86.58;93532.22;5103720;28;20016;-51
2021/11/04 01:48:38;;;;;;;14.10;9.80;;;;;;;9.43;86.66;93533.03;5089137;28;20746;-51
2021/11/04 01:51:04;;;;;;;20.13;11.52;;;;;;;9.44;87.11;93531.78;5092140;28;20024;-51
2021/11/04 01:53:29;;;;;;;20.80;13.13;;;;;;;9.38;87.83;93542.91;5110806;28;20036;-49
2021/11/04 01:55:55;;;;;;;17.70;10.63;;;;;;;9.46;87.49;93551.25;5110797;28;20035;-53
2021/11/04 01:58:20;;;;;;;19.33;11.80;;;;;;;9.42;87.99;93546.06;5099310;28;20390;-56
2021/11/04 02:00:46;;;;;;;16.92;11.80;;;;;;;9.25;88.05;93522.97;5090430;28;20084;-57
2021/11/04 02:03:33;;;;;;;18.80;11.95;;;;;;;9.38;87.93;93542.91;5089967;28;20020;-58
2021/11/04 02:17:35;;;;;;;16.60;11.55;;;;;;;9.79;85.11;93542.88;5128236;27;20637;-43
2021/11/04 02:20:01;;;;;;;19.75;11.73;;;;;;;9.52;85.43;93547.09;5128361;27;20562;-44
2021/11/04 02:22:26;;;;;;;20.15;12.68;;;;;;;9.43;86.87;93560.59;5128475;27;20106;-43
2021/11/04 02:25:18;;;;;;;17.35;12.02;;;;;;;9.39;87.26;93555.44;5127945;27;20035;-43
2021/11/04 02:28:08;;;;;;;16.70;10.98;;;;;;;9.26;87.28;93552.75;5106862;27;20443;-45
2021/11/04 02:30:34;;;;;;;18.13;11.63;;;;;;;9.18;88.19;93556.72;5106457;28;20027;-43
2021/11/04 02:33:00;;;;;;;21.15;13.45;;;;;;;9.04;89.61;93548.50;5107924;28;20055;-44
2021/11/04 02:35:26;;;;;;;20.48;13.48;;;;;;;9.01;90.41;93544.06;5107525;28;20047;-43
2021/11/04 02:37:52;;;;;;;43.67;14.85;;;;;;;9.00;90.97;93561.88;5107498;28;20052;-44
2021/11/04 02:40:19;;;;;;;658.08;51.35;;;;;;;9.04;91.56;93551.25;5119349;28;20015;-44
2021/11/04 02:42:45;;;;;;;20.10;12.82;;;;;;;9.07;91.48;93543.94;5107692;28;20435;-45
2021/11/04 02:45:11;;;;;;;21.55;13.10;;;;;;;9.11;91.60;93547.84;5107208;28;20016;-46
2021/11/04 02:47:38;;;;;;;23.92;14.35;;;;;;;9.10;91.55;93553.88;5107527;28;20028;-45
2021/11/04 02:50:05;;;;;;;19.55;13.48;;;;;;;9.09;90.78;93542.13;5106108;28;20024;-42
2021/11/04 02:52:31;;;;;;;22.65;14.02;;;;;;;9.18;90.68;93551.94;5107490;28;20019;-44
2021/11/04 02:54:59;;;;;;;25.95;14.45;;;;;;;9.18;89.99;93547.16;5118794;28;20103;-44
2021/11/04 02:57:25;;;;;;;26.33;14.32;;;;;;;9.16;90.42;93554.47;5127335;27;20492;-48
2021/11/04 02:59:51;;;;;;;21.42;12.43;;;;;;;8.97;91.37;93531.88;5127792;27;20047;-43
2021/11/04 03:02:17;;;;;;;19.63;12.27;;;;;;;9.14;91.32;93557.78;5127878;27;20041;-47
2021/11/04 03:04:42;;;;;;;18.88;12.25;;;;;;;9.20;90.94;93571.44;5107397;27;20031;-44
2021/11/04 03:07:08;;;;;;;21.67;13.40;;;;;;;9.15;90.59;93570.28;5107160;28;20028;-42
2021/11/04 03:09:34;;;;;;;40.83;14.95;;;;;;;9.16;91.01;93566.22;5107111;28;20043;-42
2021/11/04 03:12:00;;;;;;;159.55;23.85;;;;;;;9.14;91.57;93574.28;5106716;28;20227;-43
2021/11/04 03:14:25;;;;;;;20.42;12.77;;;;;;;9.21;91.06;93563.88;5112303;28;20057;-43
2021/11/04 03:16:53;;;;;;;21.60;13.90;;;;;;;9.11;90.90;93572.63;5122857;27;20126;-44
2021/11/04 03:19:21;;;;;;;22.15;14.38;;;;;;;9.16;91.07;93571.75;5113394;27;20492;-43
2021/11/04 03:21:49;;;;;;;23.70;15.38;;;;;;;9.20;91.30;93576.19;5113425;28;20527;-42
2021/11/04 03:24:19;;;;;;;25.60;15.32;;;;;;;9.15;91.05;93567.53;5113431;28;20484;-42
2021/11/04 03:26:47;;;;;;;25.77;14.77;;;;;;;9.15;91.51;93566.78;5113605;28;20646;-43
2021/11/04 03:29:13;;;;;;;193.60;24.70;;;;;;;9.01;91.77;93566.09;5112065;28;20028;-44
2021/11/04 03:31:40;;;;;;;22.23;13.45;;;;;;;9.10;92.34;93584.91;5112383;28;20420;-42
2021/11/04 03:34:07;;;;;;;83.25;16.10;;;;;;;9.07;92.47;93577.72;5113189;28;20148;-41
2021/11/04 03:36:34;;;;;;;27.02;15.07;;;;;;;9.03;92.36;93582.81;5112283;28;20408;-42
2021/11/04 03:39:00;;;;;;;24.70;15.07;;;;;;;9.00;92.50;93577.66;5113447;28;20020;-41
2021/11/04 03:41:26;;;;;;;97.13;19.10;;;;;;;8.91;93.11;93578.84;5112997;28;20054;-41
2021/11/04 03:43:51;;;;;;;23.77;15.23;;;;;;;8.94;93.25;93590.81;5112069;28;20072;-45
2021/11/04 03:46:17;;;;;;;112.28;20.75;;;;;;;8.92;93.91;93576.84;5111618;28;20031;-45
2021/11/04 03:48:43;;;;;;;23.80;14.95;;;;;;;8.95;93.76;93573.75;5111543;28;20385;-42
2021/11/04 03:51:10;;;;;;;25.63;15.82;;;;;;;8.88;93.82;93582.66;5111994;28;20115;-41
2021/11/04 03:53:36;;;;;;;24.30;15.38;;;;;;;8.86;93.96;93573.44;5111830;28;20042;-46
2021/11/04 03:56:02;;;;;;;25.85;16.33;;;;;;;8.95;93.88;93573.00;5109243;28;20023;-44
2021/11/04 03:58:28;;;;;;;52.17;16.77;;;;;;;8.85;93.50;93549.94;5103375;28;20537;-46
2021/11/04 04:00:55;;;;;;;76.05;19.88;;;;;;;8.88;93.36;93557.88;5100005;28;20150;-44
2021/11/04 04:03:21;;;;;;;25.77;15.98;;;;;;;8.96;93.39;93564.22;5102222;28;20023;-45
2021/11/04 04:06:00;;;;;;;21.23;14.30;;;;;;;8.95;93.08;93559.97;5102543;28;20173;-47
2021/11/04 04:08:26;;;;;;;24.75;15.93;;;;;;;8.87;93.48;93569.44;5102862;28;20023;-48
2021/11/04 04:10:51;;;;;;;24.08;15.95;;;;;;;8.92;93.56;93571.31;5101880;28;20031;-44
2021/11/04 04:13:17;;;;;;;95.15;18.20;;;;;;;8.94;93.64;93568.78;5102221;28;20023;-44
2021/11/04 04:15:42;;;;;;;46.03;15.27;;;;;;;8.91;93.54;93556.81;5102284;28;20046;-45
2021/11/04 04:18:08;;;;;;;32.15;14.98;;;;;;;8.91;93.82;93570.59;5103023;28;20034;-44
2021/11/04 04:20:33;;;;;;;30.75;15.90;;;;;;;8.92;93.24;93566.53;5101026;28;20027;-43
2021/11/04 04:22:59;;;;;;;24.75;14.82;;;;;;;8.86;93.63;93565.94;5101847;28;20481;-43
2021/11/04 04:25:24;;;;;;;23.88;14.93;;;;;;;8.90;93.31;93571.13;5101998;28;20016;-43
2021/11/04 04:27:50;;;;;;;21.98;14.75;;;;;;;8.93;93.35;93570.78;5103516;28;20023;-42
2021/11/04 04:30:15;;;;;;;26.63;14.80;;;;;;;8.99;92.82;93576.91;5100824;28;20682;-43
2021/11/04 04:32:41;;;;;;;24.77;13.70;;;;;;;8.90;92.81;93577.34;5101172;28;20028;-41
2021/11/04 04:35:06;;;;;;;24.27;14.15;;;;;;;8.90;93.53;93573.88;5106216;28;20449;-43
2021/11/04 04:37:32;;;;;;;25.00;14.48;;;;;;;8.91;93.20;93573.34;5111760;28;20035;-43
2021/11/04 04:39:57;;;;;;;21.77;13.90;;;;;;;8.87;93.23;93575.69;5111984;28;20039;-43
2021/11/04 04:42:23;;;;;;;21.95;14.25;;;;;;;8.93;93.39;93578.31;5111896;28;20027;-44
2021/11/04 04:44:50;;;;;;;41.88;17.10;;;;;;;8.87;93.17;93572.19;5111783;28;20039;-45
2021/11/04 04:47:15;;;;;;;20.55;13.68;;;;;;;8.84;93.40;93582.25;5111625;28;20027;-43
2021/11/04 04:49:41;;;;;;;24.23;15.23;;;;;;;8.89;93.79;93578.63;5111671;28;20092;-45
2021/11/04 04:52:06;;;;;;;74.00;18.25;;;;;;;8.69;93.99;93560.06;5112061;28;20019;-42
2021/11/04 04:54:32;;;;;;;22.73;14.00;;;;;;;8.85;94.04;93586.50;5111973;28;20063;-43
2021/11/04 04:56:58;;;;;;;27.63;13.55;;;;;;;8.84;94.10;93592.50;5111930;28;20026;-43
2021/11/04 04:59:23;;;;;;;20.00;13.75;;;;;;;8.83;93.77;93594.56;5111460;28;20020;-41
2021/11/04 05:01:49;;;;;;;26.55;14.18;;;;;;;8.84;93.61;93601.53;5099745;28;20023;-42
2021/11/04 05:04:14;;;;;;;23.85;14.98;;;;;;;8.83;93.74;93597.31;5107539;28;20036;-43
2021/11/04 05:06:40;;;;;;;23.38;13.73;;;;;;;8.86;93.77;93596.22;5111123;28;20027;-45
2021/11/04 05:09:05;;;;;;;25.73;14.23;;;;;;;8.83;94.41;93596.56;5111427;28;20063;-44
2021/11/04 05:11:30;;;;;;;220.75;24.58;;;;;;;8.81;94.55;93596.34;5111213;28;20058;-42
2021/11/04 05:13:56;;;;;;;21.33;13.35;;;;;;;8.80;94.54;93592.84;5111263;28;20026;-43
2021/11/04 05:16:21;;;;;;;21.75;13.88;;;;;;;8.85;94.27;93592.00;5111040;28;20048;-42
2021/11/04 05:18:47;;;;;;;20.45;12.57;;;;;;;8.88;94.18;93595.69;5111123;28;20081;-42
2021/11/04 05:21:12;;;;;;;25.30;14.05;;;;;;;8.85;94.36;93594.75;5111132;28;20031;-40
2021/11/04 05:23:38;;;;;;;21.90;13.13;;;;;;;8.90;94.67;93604.88;5111387;28;20084;-42
2021/11/04 05:26:03;;;;;;;26.02;14.77;;;;;;;8.96;94.70;93602.78;5111271;28;20027;-42
2021/11/04 05:28:29;;;;;;;24.38;14.48;;;;;;;9.07;94.06;93597.00;5111269;28;20050;-41
2021/11/04 05:30:56;;;;;;;25.73;14.45;;;;;;;9.05;93.51;93607.09;5111314;28;20088;-41
2021/11/04 05:33:21;;;;;;;22.60;14.02;;;;;;;9.07;93.26;93605.25;5110930;28;20038;-41
2021/11/04 05:35:46;;;;;;;60.10;18.00;;;;;;;9.13;92.79;93603.13;5111195;28;20019;-42
2021/11/04 05:38:12;;;;;;;535.05;40.33;;;;;;;9.04;93.15;93605.59;5110938;28;20034;-43
2021/11/04 05:40:37;;;;;;;26.02;13.15;;;;;;;9.03;93.54;93604.13;5110853;28;20023;-43
2021/11/04 05:43:03;;;;;;;51.65;15.85;;;;;;;9.04;93.62;93606.34;5111122;28;20027;-44
2021/11/04 05:45:29;;;;;;;23.80;12.75;;;;;;;9.09;93.89;93608.22;5110972;28;20024;-44
2021/11/04 05:47:54;;;;;;;22.73;13.52;;;;;;;9.17;92.89;93616.56;5111093;28;20454;-42
2021/11/04 05:50:21;;;;;;;22.23;13.93;;;;;;;9.10;92.73;93595.94;5109550;28;20028;-43
2021/11/04 05:52:47;;;;;;;103.20;18.77;;;;;;;9.23;92.33;93622.69;5110967;28;20467;-42
2021/11/04 05:55:12;;;;;;;21.15;12.52;;;;;;;9.21;92.52;93618.97;5110934;28;20030;-45
2021/11/04 05:57:38;;;;;;;21.88;13.57;;;;;;;9.32;92.79;93624.22;5110654;28;20515;-42
2021/11/04 06:00:04;;;;;;;67.53;14.68;;;;;;;9.44;91.29;93617.19;5110859;28;20026;-43
2021/11/04 06:02:29;;;;;;;15.80;10.38;;;;;;;9.54;89.78;93626.47;5109228;28;20023;-46
2021/11/04 06:04:55;;;;;;;16.38;10.68;;;;;;;9.64;88.90;93621.94;5110761;28;20023;-43
2021/11/04 06:07:21;;;;;;;15.50;9.82;;;;;;;9.69;88.81;93626.59;5110626;28;20032;-44
2021/11/04 06:09:46;;;;;;;19.85;11.60;;;;;;;9.69;88.00;93630.09;5110864;28;20023;-44
2021/11/04 06:12:12;;;;;;;15.25;10.20;;;;;;;9.66;88.11;93639.44;5110779;28;20507;-44
2021/11/04 06:14:37;;;;;;;49.13;15.27;;;;;;;9.61;88.44;93654.13;5110234;28;20027;-44
2021/11/04 06:17:03;;;;;;;14.95;10.25;;;;;;;9.56;88.78;93652.22;5110163;28;20036;-44
2021/11/04 06:19:28;;;;;;;20.45;11.15;;;;;;;9.59;89.25;93653.91;5110313;28;20028;-44
2021/11/04 06:28:37;;;;;;;16.13;9.90;;;;;;;9.72;88.53;93637.28;5095369;28;20122;-46
2021/11/04 06:37:46;;;;;;;15.27;9.05;;;;;;;10.08;86.26;93640.16;5098668;28;20411;-47
2021/11/04 06:40:12;;;;;;;16.50;10.40;;;;;;;10.21;86.15;93637.31;5106952;28;20028;-51
2021/11/04 06:42:39;;;;;;;13.45;8.93;;;;;;;10.56;85.25;93636.63;5106592;28;20027;-47
2021/11/04 06:45:06;;;;;;;10.20;7.43;;;;;;;10.97;82.98;93646.00;5106372;28;20094;-46
2021/11/04 06:48:00;;;;;;;13.25;8.32;;;;;;;11.71;79.59;93649.56;5106990;28;20082;-48
2021/11/04 06:50:27;;;;;;;10.93;8.90;;;;;;;12.61;75.28;93651.53;5107105;28;20042;-48
2021/11/04 06:52:56;;;;;;;9.20;6.43;;;;;;;13.23;71.03;93651.56;5105099;28;20034;-46
2021/11/04 06:55:25;;;;;;;9.60;6.30;;;;;;;13.50;70.01;93658.09;5098272;28;20064;-45
2021/11/04 06:57:52;;;;;;;16.75;9.60;;;;;;;14.18;67.08;93660.44;5098903;28;20034;-46
2021/11/04 07:00:18;;;;;;;10.90;7.45;;;;;;;14.52;64.91;93647.94;5095927;28;20031;-47
2021/11/04 07:02:50;;;;;;;14.40;6.97;;;;;;;14.57;64.61;93660.88;5099861;28;20020;-48
2021/11/04 07:05:18;;;;;;;9.38;6.70;;;;;;;14.92;63.56;93676.28;5099095;28;20032;-47
2021/11/04 07:07:48;;;;;;;9.25;7.18;;;;;;;15.15;61.83;93671.94;5100802;28;20023;-48
2021/11/04 07:10:17;;;;;;;6.93;5.72;;;;;;;15.17;61.07;93669.31;5096561;28;20027;-48
2021/11/04 07:12:44;;;;;;;;;;;;;;;14.33;63.28;93679.03;5103787;28;20031;-53
2021/11/04 07:15:10;;;;;;;9.07;7.07;;;;;;;13.33;66.63;93674.63;5101495;27;19915;-49
2021/11/04 07:17:40;;;;;;;10.25;7.45;;;;;;;12.89;69.48;93665.88;5106258;27;20031;-48
2021/11/04 07:20:06;;;;;;;9.15;5.82;;;;;;;13.36;68.57;93648.53;5092837;28;20519;-48
2021/11/04 07:22:38;;;;;;;9.80;7.88;;;;;;;13.60;67.93;93658.94;5098065;28;20028;-49
2021/11/04 07:25:07;;;;;;;8.95;6.30;;;;;;;14.32;65.43;93647.00;5091529;28;20032;-47
2021/11/04 07:27:36;;;;;;;8.27;6.40;;;;;;;15.22;62.72;93658.50;5089493;28;20536;-61
2021/11/04 07:30:06;;;;;;;6.22;5.05;;;;;;;16.08;59.66;93650.69;5091672;28;20085;-51
2021/11/04 07:32:31;;;;;;;5.85;4.82;;;;;;;17.11;55.12;93653.59;5108791;28;20039;-51
2021/11/04 07:34:57;;;;;;;5.50;4.93;;;;;;;16.79;54.91;93631.69;5105314;28;20046;-47
2021/11/04 07:37:25;;;;;;;6.05;4.80;;;;;;;16.48;56.45;93642.63;5089468;28;20412;-49
2021/11/04 07:39:52;;;;;;;8.73;4.90;;;;;;;16.89;54.82;93643.59;5091537;28;20097;-50
2021/11/04 07:42:17;;;;;;;6.85;4.00;;;;;;;16.57;55.29;93633.56;5104040;28;20424;-47
2021/11/04 07:44:42;;;;;;;6.05;4.65;;;;;;;17.05;54.54;93644.78;5089142;28;20032;-47
2021/11/04 07:47:08;;;;;;;6.22;4.40;;;;;;;17.37;54.51;93635.97;5106175;28;20024;-46
2021/11/04 07:49:34;;;;;;;8.60;6.15;;;;;;;18.68;51.24;93645.88;5109798;28;20027;-46
2021/11/04 07:52:02;;;;;;;5.25;4.40;;;;;;;19.38;48.66;93646.31;5109794;28;20054;-56
2021/11/04 07:54:31;;;;;;;7.07;4.75;;;;;;;19.28;48.77;93651.22;5108534;28;20019;-50
2021/11/04 07:56:57;;;;;;;6.88;5.00;;;;;;;20.05;47.06;93652.00;5109384;28;20038;-48
2021/11/04 07:59:24;;;;;;;4.97;4.45;;;;;;;20.89;44.99;93664.88;5108569;28;20040;-50
2021/11/04 08:01:49;;;;;;;8.65;5.63;;;;;;;21.18;44.39;93666.56;5109396;28;20024;-53
2021/11/04 08:04:15;;;;;;;7.22;4.78;;;;;;;20.38;44.22;93675.09;5109718;28;20039;-52
2021/11/04 08:06:40;;;;;;;4.63;4.13;;;;;;;20.28;44.16;93673.75;5109307;28;20550;-43
2021/11/04 08:09:06;;;;;;;7.07;4.38;;;;;;;19.96;45.41;93674.50;5108973;28;20174;-48
2021/11/04 08:11:31;;;;;;;7.10;4.68;;;;;;;20.48;43.89;93671.47;5109242;28;20031;-45
2021/11/04 08:13:56;;;;;;;4.85;4.35;;;;;;;21.25;42.62;93671.16;5108686;28;20039;-44
2021/11/04 08:16:22;;;;;;;7.18;4.38;;;;;;;21.46;41.56;93659.75;5108565;28;20447;-54
2021/11/04 08:18:47;;;;;;;5.72;4.78;;;;;;;20.39;44.14;93670.97;5108789;28;20539;-49
2021/11/04 08:21:13;;;;;;;6.15;4.65;;;;;;;19.76;45.55;93645.22;5109079;28;20042;-49
2021/11/04 08:23:38;;;;;;;6.22;4.72;;;;;;;19.64;46.69;93645.91;5108761;28;20110;-49
2021/11/04 08:26:05;;;;;;;7.68;4.80;;;;;;;20.73;44.84;93655.47;5108587;27;20040;-48
2021/11/04 08:28:31;;;;;;;7.53;4.40;;;;;;;21.46;42.31;93645.72;5109000;28;20043;-50
2021/11/04 08:30:56;;;;;;;5.88;4.82;;;;;;;21.91;42.05;93635.63;5109236;28;20730;-49
2021/11/04 08:33:23;;;;;;;6.97;4.90;;;;;;;22.30;40.58;93641.25;5109081;28;20031;-50
2021/11/04 08:35:48;;;;;;;7.60;5.40;;;;;;;22.79;39.67;93639.66;5108980;28;20491;-50
2021/11/04 08:38:14;;;;;;;5.32;4.47;;;;;;;22.49;40.07;93632.44;5108489;28;20031;-47
2021/11/04 08:40:39;;;;;;;4.75;3.88;;;;;;;22.46;38.85;93633.66;5104717;28;20034;-48
2021/11/04 08:43:05;;;;;;;8.20;4.35;;;;;;;22.63;39.76;93625.47;5088397;28;20027;-50
2021/11/04 08:45:31;;;;;;;4.22;3.63;;;;;;;23.09;37.54;93623.59;5087726;28;20520;-48
2021/11/04 08:47:56;;;;;;;4.10;3.28;;;;;;;23.69;37.07;93625.91;5087924;28;20032;-50
2021/11/04 08:50:22;;;;;;;4.82;3.47;;;;;;;24.06;36.44;93632.66;5087820;28;20668;-51
2021/11/04 08:52:52;;;;;;;4.95;3.67;;;;;;;24.97;34.86;93633.25;5087897;28;20051;-47
2021/11/04 08:55:17;;;;;;;5.38;4.20;;;;;;;24.96;34.34;93626.88;5087196;28;20032;-47
2021/11/04 08:57:42;;;;;;;4.93;4.28;;;;;;;24.78;35.35;93626.06;5090501;28;20054;-45
2021/11/04 09:00:09;;;;;;;7.97;5.25;;;;;;;25.49;34.28;93622.09;5097378;28;20031;-44
2021/11/04 09:02:35;;;;;;;8.90;5.28;;;;;;;26.00;33.62;93615.66;5095460;28;20031;-45
2021/11/04 09:05:02;;;;;;;7.78;4.28;;;;;;;26.83;32.38;93625.25;5098518;28;20039;-46
2021/11/04 09:07:28;;;;;;;8.13;5.40;;;;;;;26.87;32.11;93614.78;5096010;28;20020;-46
2021/11/04 09:09:53;;;;;;;8.07;5.05;;;;;;;27.31;30.67;93620.59;5098370;28;20038;-47
2021/11/04 09:12:19;;;;;;;9.70;6.28;;;;;;;27.23;31.08;93623.84;5095230;28;20035;-46
2021/11/04 09:14:45;;;;;;;4.80;3.30;;;;;;;27.92;28.95;93629.75;5098600;28;20043;-50
2021/11/04 09:17:12;;;;;;;3.45;2.85;;;;;;;27.59;29.49;93625.13;5099022;28;20063;-46
2021/11/04 09:19:37;;;;;;;6.03;4.20;;;;;;;28.41;28.90;93617.84;5105017;28;20673;-46
2021/11/04 09:22:03;;;;;;;12.32;6.70;;;;;;;28.59;28.63;93618.38;5109272;28;20115;-47
2021/11/04 09:24:30;;;;;;;4.35;3.17;;;;;;;27.94;28.97;93632.66;5109941;28;20062;-46
2021/11/04 09:26:56;;;;;;;8.77;5.88;;;;;;;28.80;28.76;93628.25;5108205;28;20066;-47
2021/11/04 09:29:22;;;;;;;10.70;5.35;;;;;;;29.86;27.83;93628.34;5108829;28;20027;-45
2021/11/04 09:31:49;;;;;;;13.60;8.38;;;;;;;29.68;27.69;93639.25;5109728;28;20037;-55
2021/11/04 09:34:14;;;;;;;7.95;5.03;;;;;;;29.23;28.44;93622.38;5109466;28;20106;-52
2021/11/04 09:36:40;;;;;;;7.72;4.90;;;;;;;29.06;29.04;93631.84;5108390;28;20102;-53
2021/11/04 09:39:05;;;;;;;5.95;3.55;;;;;;;28.65;28.06;93634.91;5108850;28;20514;-51
2021/11/04 09:41:32;;;;;;;6.28;3.28;;;;;;;28.63;28.67;93632.00;5109128;28;20042;-55
2021/11/04 09:43:59;;;;;;;3.42;3.03;;;;;;;28.64;28.45;93611.44;5108838;28;20534;-49
2021/11/04 09:46:25;;;;;;;5.50;3.15;;;;;;;28.31;28.02;93623.19;5109201;28;20059;-51
2021/11/04 09:48:51;;;;;;;9.75;4.40;;;;;;;28.93;29.53;93618.69;5109060;28;20169;-52
2021/11/04 09:51:17;;;;;;;7.57;3.50;;;;;;;28.76;27.93;93622.44;5108461;28;20547;-56
2021/11/04 09:53:43;;;;;;;4.00;3.05;;;;;;;28.07;28.71;93611.81;5088902;28;20028;-52
2021/11/04 09:56:08;;;;;;;6.15;3.08;;;;;;;28.35;29.12;93620.50;5106453;28;20047;-48
2021/11/04 09:58:34;;;;;;;5.18;3.03;;;;;;;28.10;28.61;93612.59;5109059;28;20519;-48
2021/11/04 10:01:25;;;;;;;5.28;3.13;;;;;;;28.52;28.87;93613.91;5109075;28;20115;-53
2021/11/04 10:03:55;;;;;;;5.28;2.97;;;;;;;28.18;28.52;93613.56;5096117;28;20504;-50
2021/11/04 10:06:22;;;;;;;3.65;3.25;;;;;;;27.99;29.71;93619.34;5088609;28;20028;-50
2021/11/04 10:09:00;;;;;;;5.03;3.22;;;;;;;27.85;30.34;93616.03;5089061;28;20287;-48
2021/11/04 10:11:30;;;;;;;5.50;2.85;;;;;;;28.13;29.25;93616.97;5089099;28;20779;-48
2021/11/04 10:14:10;;;;;;;4.80;3.25;;;;;;;28.39;28.70;93612.81;5089884;28;20047;-49
2021/11/04 10:16:36;;;;;;;7.38;3.83;;;;;;;28.28;28.38;93616.75;5108821;28;20066;-48
2021/11/04 10:19:07;;;;;;;4.25;2.88;;;;;;;28.51;29.57;93612.44;5109138;28;20100;-47
2021/11/04 10:21:38;;;;;;;6.05;3.50;;;;;;;28.85;28.37;93615.59;5108938;28;20492;-57
2021/11/04 10:24:05;;;;;;;5.50;3.28;;;;;;;28.63;28.17;93606.44;5108380;28;20131;-50
2021/11/04 10:26:36;;;;;;;6.00;3.30;;;;;;;27.51;30.02;93607.84;5108945;28;20082;-53
2021/11/04 10:29:07;;;;;;;5.65;3.17;;;;;;;27.22;29.55;93587.66;5113228;28;20024;-55
2021/11/04 10:31:59;;;;;;;6.13;3.50;;;;;;;27.15;31.03;93598.06;5113119;28;20066;-50
2021/11/04 10:34:35;;;;;;;5.15;2.90;;;;;;;27.21;31.13;93600.38;5111592;27;20119;-52
2021/11/04 10:37:18;;;;;;;6.35;3.42;;;;;;;26.85;31.63;93611.16;5109178;28;20444;-49
2021/11/04 10:39:44;;;;;;;4.60;3.55;;;;;;;27.31;30.30;93606.41;5112841;28;20496;-54
2021/11/04 10:42:11;;;;;;;4.00;3.30;;;;;;;27.84;29.72;93606.78;5112640;28;20038;-53
2021/11/04 10:44:36;;;;;;;6.82;5.07;;;;;;;28.30;29.41;93599.75;5112805;28;20044;-55
2021/11/04 10:47:02;;;;;;;5.82;2.88;;;;;;;28.87;27.69;93590.09;5112541;27;20501;-59
2021/11/04 10:49:41;;;;;;;6.03;3.72;;;;;;;28.16;29.08;93592.91;5112458;28;20118;-51
2021/11/04 10:52:08;;;;;;;7.75;4.20;;;;;;;27.60;30.72;93580.47;5112939;28;20068;-58
2021/11/04 10:54:53;;;;;;;5.25;3.65;;;;;;;27.23;30.94;93572.09;5111522;28;20028;-57
2021/11/04 10:57:41;;;;;;;3.85;3.20;;;;;;;26.93;30.97;93586.66;5091811;28;20020;-49
2021/11/04 11:00:19;;;;;;;5.68;3.30;;;;;;;26.45;30.99;93581.31;5092700;28;20032;-53
2021/11/04 11:03:12;;;;;;;3.78;3.22;;;;;;;25.70;32.69;93563.53;5095724;28;20534;-54
2021/11/04 11:05:41;;;;;;;5.75;3.95;;;;;;;25.81;33.25;93568.97;5111071;28;20113;-53
2021/11/04 11:08:06;;;;;;;;;;;;;;;26.31;31.75;93570.91;5111711;28;20055;-55
2021/11/04 11:10:32;;;;;;;6.75;3.58;;;;;;;26.65;31.76;93574.28;5112541;28;19951;-57
2021/11/04 11:12:58;;;;;;;4.53;3.53;;;;;;;26.52;33.91;93558.25;5111917;28;20114;-58
2021/11/04 11:15:24;;;;;;;6.15;3.83;;;;;;;27.26;31.36;93565.84;5111758;28;20020;-55
2021/11/04 11:17:51;;;;;;;5.75;3.78;;;;;;;27.24;30.23;93562.22;5112532;28;20513;-56
2021/11/04 11:20:16;;;;;;;7.10;4.10;;;;;;;27.07;31.19;93580.03;5111148;28;20100;-58
2021/11/04 11:22:43;;;;;;;5.68;3.67;;;;;;;26.17;32.21;93561.16;5112324;28;20484;-53
2021/11/04 11:25:09;;;;;;;5.13;4.13;;;;;;;26.25;33.67;93550.88;5111947;28;20023;-54
2021/11/04 11:27:35;;;;;;;5.25;3.42;;;;;;;26.61;31.72;93556.44;5112070;28;20036;-55
2021/11/04 11:30:14;;;;;;;5.50;3.58;;;;;;;26.41;31.19;93567.75;5112172;28;20103;-56
2021/11/04 11:32:39;;;;;;;5.32;3.45;;;;;;;26.09;31.87;93560.88;5111936;27;20045;-54
2021/11/04 11:35:18;;;;;;;5.93;4.00;;;;;;;26.17;32.29;93556.25;5111857;28;20110;-51
2021/11/04 11:37:53;;;;;;;6.45;3.13;;;;;;;26.20;31.54;93554.94;5102127;27;20115;-57
2021/11/04 11:40:19;;;;;;;4.15;3.03;;;;;;;26.33;31.24;93541.97;5096236;28;20400;-53
2021/11/04 11:42:59;;;;;;;6.93;3.13;;;;;;;25.96;31.28;93556.09;5095008;28;20064;-54
2021/11/04 11:45:25;;;;;;;6.68;3.10;;;;;;;26.01;31.65;93552.75;5100761;28;20076;-52
2021/11/04 11:47:51;;;;;;;5.85;3.08;;;;;;;25.94;31.61;93544.69;5111909;28;20514;-57
2021/11/04 11:50:30;;;;;;;7.38;2.95;;;;;;;25.94;31.80;93550.34;5111854;28;20053;-52
2021/11/04 11:53:05;;;;;;;5.05;3.45;;;;;;;25.91;32.09;93549.53;5111359;28;20119;-51
2021/11/04 11:55:34;;;;;;;5.90;3.35;;;;;;;25.43;32.89;93558.91;5111878;28;20102;-52